Terminal Aerodrome Forecast
Issued by NWS

Home | Current Version | Previous Version | Text Only | Print | Product List | Glossary On
Versions: 1 2 3 4 5 6 7 8 9 10 11 12 13 14 15 16 17 18 19 20 21 22 23 24 25 26
000
FTUS43 KGRB 211700
TAFAUW
TAF
KAUW 211720Z 2118/2218 34014G22KT P6SM SCT015 BKN030
     FM212000 34013G19KT P6SM SCT050
     FM220000 34004KT P6SM SKC
      TEMPO 2209/2212 3SM BR
     FM221400 28005KT P6SM SKC=

USA.gov is the U.S. government's official web portal to all federal, state and local government web resources and services.